sensor_id;sensor_type;location;lat;lon;timestamp;pressure;altitude;pressure_sealevel;temperature;humidity
6425;BME280;12193;42.642;23.384;2023-03-18T00:02:13;94825.84;;;1.18;100.00
6425;BME280;12193;42.642;23.384;2023-03-18T00:04:44;94822.78;;;1.14;100.00
6425;BME280;12193;42.642;23.384;2023-03-18T00:07:13;94826.50;;;1.39;100.00
6425;BME280;12193;42.642;23.384;2023-03-18T00:09:42;94824.59;;;1.41;100.00
6425;BME280;12193;42.642;23.384;2023-03-18T00:12:12;94817.09;;;1.20;100.00
6425;BME280;12193;42.642;23.384;2023-03-18T00:14:45;94811.84;;;1.12;100.00
6425;BME280;12193;42.642;23.384;2023-03-18T00:17:14;94817.09;;;0.92;100.00
6425;BME280;12193;42.642;23.384;2023-03-18T00:19:44;94820.22;;;0.96;100.00
6425;BME280;12193;42.642;23.384;2023-03-18T00:22:15;94807.56;;;0.94;100.00
6425;BME280;12193;42.642;23.384;2023-03-18T00:24:46;94815.78;;;0.69;100.00
6425;BME280;12193;42.642;23.384;2023-03-18T00:27:16;94807.56;;;0.56;100.00
6425;BME280;12193;42.642;23.384;2023-03-18T00:29:49;94802.72;;;0.53;100.00
6425;BME280;12193;42.642;23.384;2023-03-18T00:32:18;94801.38;;;0.49;100.00
6425;BME280;12193;42.642;23.384;2023-03-18T00:34:48;94801.66;;;0.65;100.00
6425;BME280;12193;42.642;23.384;2023-03-18T00:37:18;94795.88;;;0.63;100.00
6425;BME280;12193;42.642;23.384;2023-03-18T00:39:56;94788.03;;;0.74;100.00
6425;BME280;12193;42.642;23.384;2023-03-18T00:42:29;94786.84;;;0.69;100.00
6425;BME280;12193;42.642;23.384;2023-03-18T00:45:08;94791.00;;;0.51;100.00
6425;BME280;12193;42.642;23.384;2023-03-18T00:47:38;94786.66;;;0.32;100.00
6425;BME280;12193;42.642;23.384;2023-03-18T00:50:10;94782.22;;;0.15;100.00
6425;BME280;12193;42.642;23.384;2023-03-18T00:52:39;94780.47;;;0.06;100.00
6425;BME280;12193;42.642;23.384;2023-03-18T00:55:09;94766.44;;;0.01;100.00
6425;BME280;12193;42.642;23.384;2023-03-18T00:57:39;94769.28;;;-0.11;100.00
6425;BME280;12193;42.642;23.384;2023-03-18T01:00:12;94769.28;;;-0.11;100.00
6425;BME280;12193;42.642;23.384;2023-03-18T01:02:44;94769.78;;;-0.17;100.00
6425;BME280;12193;42.642;23.384;2023-03-18T01:05:15;94770.03;;;-0.20;100.00
6425;BME280;12193;42.642;23.384;2023-03-18T04:08:49;94752.34;;;-0.82;100.00
6425;BME280;12193;42.642;23.384;2023-03-18T04:11:19;94761.63;;;-1.01;100.00
6425;BME280;12193;42.642;23.384;2023-03-18T04:13:49;94759.13;;;-0.92;100.00
6425;BME280;12193;42.642;23.384;2023-03-18T04:16:19;94776.69;;;-0.98;100.00
6425;BME280;12193;42.642;23.384;2023-03-18T04:18:48;94776.41;;;-1.15;100.00
6425;BME280;12193;42.642;23.384;2023-03-18T04:21:17;94774.13;;;-1.18;100.00
6425;BME280;12193;42.642;23.384;2023-03-18T04:23:50;94773.31;;;-1.19;100.00
6425;BME280;12193;42.642;23.384;2023-03-18T04:26:19;94784.16;;;-1.26;100.00
6425;BME280;12193;42.642;23.384;2023-03-18T04:28:49;94787.19;;;-1.32;100.00
6425;BME280;12193;42.642;23.384;2023-03-18T04:31:18;94796.69;;;-1.34;100.00
6425;BME280;12193;42.642;23.384;2023-03-18T04:33:48;94783.25;;;-1.36;100.00
6425;BME280;12193;42.642;23.384;2023-03-18T04:36:17;94791.59;;;-1.34;100.00
6425;BME280;12193;42.642;23.384;2023-03-18T04:38:49;94801.06;;;-1.25;100.00
6425;BME280;12193;42.642;23.384;2023-03-18T04:41:18;94795.75;;;-1.33;100.00
6425;BME280;12193;42.642;23.384;2023-03-18T04:43:47;94804.28;;;-1.23;100.00
6425;BME280;12193;42.642;23.384;2023-03-18T04:46:17;94796.56;;;-1.12;100.00
6425;BME280;12193;42.642;23.384;2023-03-18T04:48:47;94806.69;;;-1.02;100.00
6425;BME280;12193;42.642;23.384;2023-03-18T04:51:16;94805.34;;;-1.05;100.00
6425;BME280;12193;42.642;23.384;2023-03-18T04:53:46;94813.69;;;-1.03;100.00
6425;BME280;12193;42.642;23.384;2023-03-18T04:56:18;94807.78;;;-1.04;100.00
6425;BME280;12193;42.642;23.384;2023-03-18T04:58:47;94811.38;;;-1.06;100.00
6425;BME280;12193;42.642;23.384;2023-03-18T05:01:16;94809.25;;;-1.02;100.00
6425;BME280;12193;42.642;23.384;2023-03-18T05:03:46;94810.22;;;-1.02;100.00
6425;BME280;12193;42.642;23.384;2023-03-18T05:06:20;94808.22;;;-0.99;100.00
6425;BME280;12193;42.642;23.384;2023-03-18T05:08:49;94804.38;;;-1.14;100.00
6425;BME280;12193;42.642;23.384;2023-03-18T05:11:22;94805.47;;;-1.07;100.00
6425;BME280;12193;42.642;23.384;2023-03-18T05:13:51;94806.91;;;-0.94;100.00
6425;BME280;12193;42.642;23.384;2023-03-18T05:16:21;94804.41;;;-0.84;100.00
6425;BME280;12193;42.642;23.384;2023-03-18T05:18:50;94800.00;;;-1.02;100.00
6425;BME280;12193;42.642;23.384;2023-03-18T05:21:20;94802.03;;;-0.97;100.00
6425;BME280;12193;42.642;23.384;2023-03-18T05:23:50;94799.00;;;-0.91;100.00
6425;BME280;12193;42.642;23.384;2023-03-18T05:26:22;94789.25;;;-0.86;100.00
6425;BME280;12193;42.642;23.384;2023-03-18T05:28:51;94791.53;;;-0.83;100.00
6425;BME280;12193;42.642;23.384;2023-03-18T05:31:22;94786.91;;;-0.68;100.00
6425;BME280;12193;42.642;23.384;2023-03-18T05:33:52;94788.75;;;-0.50;100.00
6425;BME280;12193;42.642;23.384;2023-03-18T05:36:22;94788.75;;;-0.50;100.00
6425;BME280;12193;42.642;23.384;2023-03-18T05:38:51;94791.75;;;-0.35;100.00
6425;BME280;12193;42.642;23.384;2023-03-18T05:41:24;94785.63;;;-0.14;100.00
6425;BME280;12193;42.642;23.384;2023-03-18T05:43:53;94785.16;;;0.01;100.00
6425;BME280;12193;42.642;23.384;2023-03-18T05:46:22;94791.41;;;0.37;100.00
6425;BME280;12193;42.642;23.384;2023-03-18T05:48:52;94794.66;;;0.48;100.00
6425;BME280;12193;42.642;23.384;2023-03-18T05:51:21;94793.44;;;0.81;100.00
6425;BME280;12193;42.642;23.384;2023-03-18T05:53:52;94795.72;;;0.84;100.00
6425;BME280;12193;42.642;23.384;2023-03-18T05:56:24;94803.50;;;1.20;100.00
6425;BME280;12193;42.642;23.384;2023-03-18T05:58:53;94808.22;;;1.70;100.00
6425;BME280;12193;42.642;23.384;2023-03-18T06:01:23;94813.31;;;2.06;100.00
6425;BME280;12193;42.642;23.384;2023-03-18T06:03:53;94811.03;;;2.30;100.00
6425;BME280;12193;42.642;23.384;2023-03-18T06:06:22;94822.19;;;2.56;100.00
6425;BME280;12193;42.642;23.384;2023-03-18T06:08:52;94816.63;;;2.43;100.00
6425;BME280;12193;42.642;23.384;2023-03-18T06:11:24;94809.03;;;3.72;98.42
6425;BME280;12193;42.642;23.384;2023-03-18T06:13:55;94811.88;;;4.27;91.07
6425;BME280;12193;42.642;23.384;2023-03-18T06:16:24;94806.06;;;6.32;82.32
6425;BME280;12193;42.642;23.384;2023-03-18T06:18:54;94807.63;;;7.24;78.48
6425;BME280;12193;42.642;23.384;2023-03-18T06:21:24;94809.78;;;8.09;70.21
6425;BME280;12193;42.642;23.384;2023-03-18T06:23:54;94801.66;;;8.41;65.90
6425;BME280;12193;42.642;23.384;2023-03-18T06:26:26;94803.03;;;9.08;63.16
6425;BME280;12193;42.642;23.384;2023-03-18T06:28:56;94797.22;;;9.06;62.07
6425;BME280;12193;42.642;23.384;2023-03-18T06:31:25;94802.63;;;8.40;65.28
6425;BME280;12193;42.642;23.384;2023-03-18T06:33:55;94793.25;;;8.39;64.62
6425;BME280;12193;42.642;23.384;2023-03-18T06:36:24;94792.50;;;8.74;63.50
6425;BME280;12193;42.642;23.384;2023-03-18T06:38:53;94789.19;;;9.01;63.23
6425;BME280;12193;42.642;23.384;2023-03-18T06:41:27;94776.16;;;8.94;63.95
6425;BME280;12193;42.642;23.384;2023-03-18T06:43:56;94773.09;;;8.84;63.70
6425;BME280;12193;42.642;23.384;2023-03-18T06:46:26;94778.38;;;8.76;64.62
6425;BME280;12193;42.642;23.384;2023-03-18T06:48:55;94773.22;;;9.39;62.13
6425;BME280;12193;42.642;23.384;2023-03-18T06:51:25;94771.72;;;9.51;62.46
6425;BME280;12193;42.642;23.384;2023-03-18T06:53:54;94782.09;;;8.53;65.78
6425;BME280;12193;42.642;23.384;2023-03-18T06:56:26;94779.53;;;8.24;67.41
6425;BME280;12193;42.642;23.384;2023-03-18T06:58:55;94779.69;;;8.37;66.43
6425;BME280;12193;42.642;23.384;2023-03-18T07:01:25;94781.88;;;8.69;66.73
6425;BME280;12193;42.642;23.384;2023-03-18T07:03:58;94774.34;;;10.06;61.77
6425;BME280;12193;42.642;23.384;2023-03-18T07:06:28;94773.09;;;9.26;63.43
6425;BME280;12193;42.642;23.384;2023-03-18T07:08:58;94775.31;;;8.37;66.26
6425;BME280;12193;42.642;23.384;2023-03-18T07:11:31;94775.56;;;7.99;71.00
6425;BME280;12193;42.642;23.384;2023-03-18T07:14:00;94786.25;;;7.30;71.85
6425;BME280;12193;42.642;23.384;2023-03-18T07:16:31;94778.25;;;7.40;73.14
6425;BME280;12193;42.642;23.384;2023-03-18T07:19:00;94784.34;;;6.80;76.46
6425;BME280;12193;42.642;23.384;2023-03-18T07:21:29;94781.22;;;6.62;77.61
6425;BME280;12193;42.642;23.384;2023-03-18T07:23:58;94777.78;;;7.22;76.82
6425;BME280;12193;42.642;23.384;2023-03-18T07:26:32;94777.97;;;7.72;74.47
6425;BME280;12193;42.642;23.384;2023-03-18T07:29:02;94769.75;;;8.12;72.75
6425;BME280;12193;42.642;23.384;2023-03-18T07:31:32;94777.38;;;8.13;71.74
6425;BME280;12193;42.642;23.384;2023-03-18T07:34:02;94782.34;;;8.00;72.85
6425;BME280;12193;42.642;23.384;2023-03-18T07:36:31;94780.84;;;7.91;73.97
6425;BME280;12193;42.642;23.384;2023-03-18T07:39:02;94786.13;;;8.12;72.80
6425;BME280;12193;42.642;23.384;2023-03-18T07:41:34;94782.81;;;8.47;73.75
6425;BME280;12193;42.642;23.384;2023-03-18T07:44:04;94778.00;;;8.29;72.73
6425;BME280;12193;42.642;23.384;2023-03-18T07:46:33;94784.06;;;8.86;70.98
6425;BME280;12193;42.642;23.384;2023-03-18T07:49:03;94783.53;;;9.12;69.27
6425;BME280;12193;42.642;23.384;2023-03-18T07:51:32;94784.88;;;8.87;70.87
6425;BME280;12193;42.642;23.384;2023-03-18T07:54:01;94783.22;;;9.42;68.21
6425;BME280;12193;42.642;23.384;2023-03-18T07:56:34;94779.50;;;8.53;70.46
6425;BME280;12193;42.642;23.384;2023-03-18T07:59:03;94783.53;;;9.81;68.06
6425;BME280;12193;42.642;23.384;2023-03-18T08:01:34;94791.84;;;9.07;69.92
6425;BME280;12193;42.642;23.384;2023-03-18T08:04:04;94789.97;;;8.80;70.47
6425;BME280;12193;42.642;23.384;2023-03-18T08:06:33;94785.91;;;8.92;71.25
6425;BME280;12193;42.642;23.384;2023-03-18T08:09:03;59546.94;;;-140.48;100.00
6425;BME280;12193;42.642;23.384;2023-03-18T08:11:35;59546.94;;;-140.48;100.00
6425;BME280;12193;42.642;23.384;2023-03-18T08:14:05;59546.94;;;-140.48;100.00
6425;BME280;12193;42.642;23.384;2023-03-18T08:16:34;59546.94;;;-140.48;100.00
6425;BME280;12193;42.642;23.384;2023-03-18T08:19:03;59546.94;;;-140.48;100.00
6425;BME280;12193;42.642;23.384;2023-03-18T08:21:33;59546.94;;;-140.48;100.00
6425;BME280;12193;42.642;23.384;2023-03-18T08:24:03;59546.94;;;-140.48;100.00
6425;BME280;12193;42.642;23.384;2023-03-18T08:26:35;59546.94;;;-140.48;100.00
6425;BME280;12193;42.642;23.384;2023-03-18T08:29:05;59546.94;;;-140.48;100.00
6425;BME280;12193;42.642;23.384;2023-03-18T08:31:34;59546.94;;;-140.48;100.00
6425;BME280;12193;42.642;23.384;2023-03-18T08:34:03;59546.94;;;-140.48;100.00
6425;BME280;12193;42.642;23.384;2023-03-18T08:36:34;59546.94;;;-140.48;100.00
6425;BME280;12193;42.642;23.384;2023-03-18T08:39:03;59546.94;;;-140.48;100.00
6425;BME280;12193;42.642;23.384;2023-03-18T08:41:35;59546.94;;;-140.48;100.00
6425;BME280;12193;42.642;23.384;2023-03-18T08:44:06;59546.94;;;-140.48;100.00
6425;BME280;12193;42.642;23.384;2023-03-18T08:46:36;59546.94;;;-140.48;100.00
6425;BME280;12193;42.642;23.384;2023-03-18T08:49:06;59546.94;;;-140.48;100.00
6425;BME280;12193;42.642;23.384;2023-03-18T08:51:35;59546.94;;;-140.48;100.00
6425;BME280;12193;42.642;23.384;2023-03-18T08:54:05;59546.94;;;-140.48;100.00
6425;BME280;12193;42.642;23.384;2023-03-18T08:56:37;59546.94;;;-140.48;100.00
6425;BME280;12193;42.642;23.384;2023-03-18T08:59:06;59546.94;;;-140.48;100.00
6425;BME280;12193;42.642;23.384;2023-03-18T09:01:36;59546.94;;;-140.48;100.00
6425;BME280;12193;42.642;23.384;2023-03-18T09:04:05;59546.94;;;-140.48;100.00
6425;BME280;12193;42.642;23.384;2023-03-18T09:06:35;59546.94;;;-140.48;100.00
6425;BME280;12193;42.642;23.384;2023-03-18T09:09:04;59546.94;;;-140.48;100.00
6425;BME280;12193;42.642;23.384;2023-03-18T09:11:36;59546.94;;;-140.48;100.00
6425;BME280;12193;42.642;23.384;2023-03-18T09:14:06;59546.94;;;-140.48;100.00
6425;BME280;12193;42.642;23.384;2023-03-18T09:16:36;59546.94;;;-140.48;100.00
6425;BME280;12193;42.642;23.384;2023-03-18T09:19:05;59546.94;;;-140.48;100.00
6425;BME280;12193;42.642;23.384;2023-03-18T09:21:34;59546.94;;;-140.48;100.00
6425;BME280;12193;42.642;23.384;2023-03-18T09:24:04;59546.94;;;-140.48;100.00
6425;BME280;12193;42.642;23.384;2023-03-18T09:26:36;59546.94;;;-140.48;100.00
6425;BME280;12193;42.642;23.384;2023-03-18T09:29:07;59546.94;;;-140.48;100.00
6425;BME280;12193;42.642;23.384;2023-03-18T09:31:37;59546.94;;;-140.48;100.00
6425;BME280;12193;42.642;23.384;2023-03-18T09:34:06;59546.94;;;-140.48;100.00
6425;BME280;12193;42.642;23.384;2023-03-18T09:36:39;59546.94;;;-140.48;100.00
